Time;durP1;ratioP1;P1;durP2;ratioP2;P2;SDS_P1;SDS_P2;PMS_P1;PMS_P2;Temp;Humidity;BMP_temperature;BMP_pressure;BME280_temperature;BME280_humidity;BME280_pressure;Samples;Min_cycle;Max_cycle;Signal;HPM_P1;HPM_P2
2023/04/22 00:00:02;;;;;;;7.70;2.63;;;;;;;23.17;43.11;101933.91;5092288;28;20032;-46
2023/04/22 00:02:28;;;;;;;7.68;2.67;;;;;;;23.26;42.39;101936.94;5092319;28;20031;-48
2023/04/22 00:04:56;;;;;;;8.60;3.10;;;;;;;22.77;43.80;101931.69;5092118;28;20028;-48
2023/04/22 00:07:22;;;;;;;11.02;3.22;;;;;;;22.71;43.44;101938.19;5092374;28;20036;-47
2023/04/22 00:09:49;;;;;;;9.63;2.80;;;;;;;22.49;44.22;101932.81;5091427;28;20038;-48
2023/04/22 00:12:15;;;;;;;14.27;3.17;;;;;;;22.01;45.71;101934.47;5092044;28;20058;-44
2023/04/22 00:14:41;;;;;;;11.55;2.65;;;;;;;22.16;46.06;101935.75;5092145;28;20115;-45
2023/04/22 00:17:07;;;;;;;10.25;2.70;;;;;;;22.27;45.15;101921.16;5091915;28;20552;-47
2023/04/22 00:19:34;;;;;;;9.57;2.88;;;;;;;22.23;45.42;101923.56;5091763;28;20358;-48
2023/04/22 00:22:00;;;;;;;11.82;3.40;;;;;;;22.31;46.12;101923.06;5091820;28;20016;-47
2023/04/22 00:24:26;;;;;;;10.38;3.15;;;;;;;21.82;46.47;101923.09;5091948;28;20385;-48
2023/04/22 00:26:52;;;;;;;12.18;3.38;;;;;;;21.98;46.23;101915.06;5092083;28;20479;-46
2023/04/22 00:29:19;;;;;;;8.32;2.50;;;;;;;21.71;46.45;101921.34;5091897;28;20431;-48
2023/04/22 00:31:45;;;;;;;8.02;2.33;;;;;;;21.85;45.66;101922.56;5091953;28;20062;-49
2023/04/22 00:34:11;;;;;;;8.95;2.53;;;;;;;22.00;45.66;101907.47;5077925;28;20047;-49
2023/04/22 00:36:37;;;;;;;8.95;2.50;;;;;;;22.22;45.52;101905.56;5071065;28;20451;-49
2023/04/22 00:39:05;;;;;;;8.80;2.78;;;;;;;22.13;45.37;101909.81;5072927;28;20472;-49
2023/04/22 00:41:32;;;;;;;10.23;2.80;;;;;;;22.02;45.15;101903.41;5076641;28;20041;-46
2023/04/22 00:44:00;;;;;;;12.40;2.90;;;;;;;22.00;46.20;101899.31;5091527;28;20031;-49
2023/04/22 00:46:27;;;;;;;9.85;3.00;;;;;;;21.45;46.99;101903.03;5091188;28;20077;-47
2023/04/22 00:48:53;;;;;;;9.82;2.78;;;;;;;21.95;46.87;101907.44;5108169;28;20028;-49
2023/04/22 00:51:19;;;;;;;8.82;2.90;;;;;;;21.97;46.41;101897.06;5111092;28;20391;-49
2023/04/22 00:53:46;;;;;;;8.93;2.50;;;;;;;21.91;46.81;101892.66;5102316;28;20024;-45
2023/04/22 00:56:12;;;;;;;11.38;3.03;;;;;;;21.98;46.78;101893.25;5081983;28;20036;-46
2023/04/22 00:58:39;;;;;;;14.40;2.88;;;;;;;21.88;45.90;101897.53;5072555;28;20036;-45
2023/04/22 01:01:06;;;;;;;11.38;3.55;;;;;;;21.69;46.26;101893.50;5092113;28;20103;-46
2023/04/22 01:03:34;;;;;;;9.20;3.10;;;;;;;22.03;46.48;101891.41;5091545;28;20028;-45
2023/04/22 01:06:01;;;;;;;9.13;2.25;;;;;;;21.95;45.70;101885.63;5092129;28;20027;-46
2023/04/22 01:08:28;;;;;;;10.77;2.65;;;;;;;21.86;46.22;101887.97;5092227;28;20026;-48
2023/04/22 01:10:58;;;;;;;18.42;3.30;;;;;;;21.64;46.67;101881.72;5076800;28;20032;-51
2023/04/22 01:13:25;;;;;;;8.40;2.70;;;;;;;21.93;47.00;101879.59;5081399;28;20028;-51
2023/04/22 01:15:53;;;;;;;9.43;2.58;;;;;;;21.99;45.77;101876.66;5080843;28;20067;-51
2023/04/22 01:18:19;;;;;;;11.43;2.55;;;;;;;22.16;45.86;101870.31;5087324;28;20041;-52
2023/04/22 01:20:46;;;;;;;9.70;2.58;;;;;;;22.11;45.31;101871.09;5090762;28;20028;-54
2023/04/22 01:23:20;;;;;;;9.52;2.88;;;;;;;22.40;45.03;101869.72;5090243;28;20054;-46
2023/04/22 01:25:47;;;;;;;5.82;2.28;;;;;;;21.88;45.58;101870.28;5090901;28;20099;-46
2023/04/22 01:28:15;;;;;;;7.57;2.63;;;;;;;22.42;45.10;101855.81;5089358;28;20052;-47
2023/04/22 01:30:42;;;;;;;6.30;2.50;;;;;;;22.17;44.38;101861.88;5090809;28;20097;-48
2023/04/22 01:33:10;;;;;;;11.52;2.60;;;;;;;22.29;44.37;101854.34;5091255;28;20063;-48
2023/04/22 01:35:37;;;;;;;7.10;2.40;;;;;;;22.48;44.12;101849.31;5091781;28;20024;-47
2023/04/22 01:38:05;;;;;;;10.65;2.83;;;;;;;22.67;44.86;101853.28;5091930;28;20020;-47
2023/04/22 01:40:32;;;;;;;7.70;3.15;;;;;;;22.77;44.59;101852.53;5091424;28;20028;-48
2023/04/22 01:43:02;;;;;;;8.85;2.83;;;;;;;22.77;44.57;101848.97;5091704;28;20040;-45
2023/04/22 01:45:28;;;;;;;12.18;4.20;;;;;;;22.91;43.56;101851.00;5091829;28;20020;-48
2023/04/22 01:47:55;;;;;;;8.00;2.70;;;;;;;22.90;44.68;101835.72;5091917;28;20057;-47
2023/04/22 01:50:22;;;;;;;11.82;3.78;;;;;;;22.74;45.48;101830.38;5091220;28;20031;-47
2023/04/22 01:52:48;;;;;;;9.50;3.53;;;;;;;22.69;45.70;101841.28;5091714;28;20024;-48
2023/04/22 01:55:15;;;;;;;11.15;3.35;;;;;;;22.48;45.71;101837.56;5091690;28;20133;-46
2023/04/22 01:57:41;;;;;;;10.25;3.00;;;;;;;22.13;46.76;101839.75;5091532;28;20023;-48
2023/04/22 02:00:08;;;;;;;10.18;4.43;;;;;;;22.29;46.96;101850.78;5091382;28;20496;-45
2023/04/22 02:02:35;;;;;;;10.85;3.75;;;;;;;22.28;46.93;101840.97;5093819;28;20031;-48
2023/04/22 02:05:01;;;;;;;12.80;3.63;;;;;;;21.92;48.18;101837.88;5095254;28;20052;-47
2023/04/22 02:07:27;;;;;;;14.63;3.97;;;;;;;21.74;48.78;101847.22;5094999;28;20024;-47
2023/04/22 02:09:53;;;;;;;12.82;3.65;;;;;;;21.63;48.67;101841.94;5074867;28;20067;-48
2023/04/22 02:12:20;;;;;;;14.18;3.88;;;;;;;21.12;49.62;101842.09;5074245;28;20029;-47
2023/04/22 02:14:46;;;;;;;10.52;3.25;;;;;;;21.04;50.16;101845.25;5082622;28;20480;-46
2023/04/22 02:17:16;;;;;;;14.32;3.42;;;;;;;20.83;50.43;101841.44;5094366;28;20113;-48
2023/04/22 02:19:42;;;;;;;14.85;3.67;;;;;;;20.58;50.86;101841.88;5094474;28;20051;-49
2023/04/22 02:22:09;;;;;;;11.02;3.70;;;;;;;20.61;50.94;101835.13;5094475;28;20395;-47
2023/04/22 02:24:35;;;;;;;11.23;3.72;;;;;;;20.32;51.34;101835.16;5094505;28;20031;-47
2023/04/22 02:27:01;;;;;;;14.32;3.58;;;;;;;19.88;52.21;101834.16;5084644;28;20038;-48
2023/04/22 02:29:28;;;;;;;12.65;3.60;;;;;;;19.64;52.72;101833.41;5073889;28;20103;-48
2023/04/22 02:31:54;;;;;;;13.93;4.15;;;;;;;19.54;53.51;101831.28;5073726;28;20024;-48
2023/04/22 02:34:20;;;;;;;18.02;4.28;;;;;;;19.20;54.57;101827.59;5074022;28;20111;-47
2023/04/22 02:36:46;;;;;;;11.73;3.70;;;;;;;19.25;54.24;101825.00;5073993;28;20033;-48
2023/04/22 02:39:13;;;;;;;15.93;3.67;;;;;;;18.94;55.92;101823.53;5073501;28;20048;-44
2023/04/22 02:41:39;;;;;;;11.38;3.50;;;;;;;18.92;55.46;101833.78;5074216;28;20036;-46
2023/04/22 02:44:05;;;;;;;18.02;3.67;;;;;;;18.66;57.01;101825.06;5073755;28;20496;-45
2023/04/22 02:46:31;;;;;;;11.40;2.95;;;;;;;18.71;56.81;101829.78;5073959;28;20032;-45
2023/04/22 02:48:58;;;;;;;12.02;3.38;;;;;;;18.71;56.96;101825.19;5073535;28;20545;-48
2023/04/22 02:51:24;;;;;;;12.38;3.65;;;;;;;18.71;56.88;101825.19;5073500;28;20032;-47
2023/04/22 02:53:50;;;;;;;14.68;3.55;;;;;;;18.57;57.55;101818.31;5073425;28;20025;-49
2023/04/22 02:56:16;;;;;;;14.13;3.33;;;;;;;18.19;59.19;101824.97;5073583;28;20024;-47
2023/04/22 02:58:42;;;;;;;12.20;3.58;;;;;;;18.18;59.10;101830.66;5073435;28;20052;-47
2023/04/22 03:01:10;;;;;;;21.15;4.82;;;;;;;18.25;59.34;101834.06;5073257;28;20032;-47
2023/04/22 03:03:36;;;;;;;15.80;3.75;;;;;;;18.27;59.54;101840.09;5092417;28;20027;-49
2023/04/22 03:06:03;;;;;;;14.10;3.90;;;;;;;18.20;59.56;101834.75;5081022;28;20032;-46
2023/04/22 03:08:29;;;;;;;7.00;3.17;;;;;;;17.86;60.23;101840.91;5081632;28;20472;-46
2023/04/22 03:10:55;;;;;;;16.33;3.65;;;;;;;17.75;61.14;101837.09;5080795;28;20030;-45
2023/04/22 03:13:21;;;;;;;11.65;3.42;;;;;;;17.52;61.57;101831.56;5092824;28;20032;-46
2023/04/22 03:15:47;;;;;;;17.33;3.60;;;;;;;17.71;60.91;101835.03;5093511;28;20040;-47
2023/04/22 03:18:14;;;;;;;11.55;3.70;;;;;;;17.73;61.00;101838.41;5093237;28;20136;-47
2023/04/22 03:20:40;;;;;;;22.67;3.78;;;;;;;17.68;61.29;101828.22;5093788;28;20024;-45
2023/04/22 03:23:07;;;;;;;12.10;3.38;;;;;;;17.29;62.60;101832.25;5093583;28;20111;-47
2023/04/22 03:25:35;;;;;;;11.10;3.72;;;;;;;17.36;63.02;101833.00;5092897;28;20061;-47
2023/04/22 03:28:03;;;;;;;18.23;4.65;;;;;;;17.35;63.05;101837.59;5093021;28;20028;-44
2023/04/22 03:30:29;;;;;;;16.20;3.60;;;;;;;17.25;62.96;101833.75;5082576;28;20033;-47
2023/04/22 03:32:56;;;;;;;10.80;3.42;;;;;;;17.18;62.98;101836.53;5093114;28;20488;-44
2023/04/22 03:35:22;;;;;;;12.55;4.35;;;;;;;17.09;63.38;101832.47;5093053;28;20431;-45
2023/04/22 03:37:48;;;;;;;16.98;4.60;;;;;;;16.88;64.73;101836.47;5100311;28;20023;-46
2023/04/22 03:40:15;;;;;;;17.75;4.25;;;;;;;17.10;63.68;101826.00;5113494;28;20107;-44
2023/04/22 03:42:41;;;;;;;12.77;4.03;;;;;;;17.07;63.84;101834.59;5113740;28;20045;-44
2023/04/22 03:45:07;;;;;;;17.65;3.95;;;;;;;16.77;65.87;101829.09;5113583;27;20482;-44
2023/04/22 03:47:34;;;;;;;15.00;5.07;;;;;;;16.42;67.14;101821.44;5113551;28;20479;-46
2023/04/22 03:50:00;;;;;;;13.18;4.03;;;;;;;16.62;66.55;101827.50;5094198;28;20493;-46
2023/04/22 03:52:26;;;;;;;13.40;3.65;;;;;;;16.75;65.86;101828.47;5093123;28;20028;-44
2023/04/22 03:54:52;;;;;;;13.13;4.15;;;;;;;16.56;66.18;101827.59;5093414;28;20076;-45
2023/04/22 03:57:18;;;;;;;11.55;4.70;;;;;;;16.21;67.70;101833.47;5091610;28;20173;-47
2023/04/22 03:59:45;;;;;;;17.77;4.50;;;;;;;16.24;67.65;101841.13;5081320;28;20026;-47
2023/04/22 04:02:11;;;;;;;15.07;4.05;;;;;;;16.41;67.31;101840.59;5092673;28;20032;-44
2023/04/22 04:04:37;;;;;;;14.80;4.00;;;;;;;16.17;67.60;101840.38;5079482;28;20444;-44
2023/04/22 04:07:03;;;;;;;14.75;4.80;;;;;;;15.99;68.52;101837.56;5072575;28;20381;-48
2023/04/22 04:09:30;;;;;;;15.05;4.20;;;;;;;16.22;67.75;101842.41;5071381;28;20028;-44
2023/04/22 04:11:56;;;;;;;12.27;3.67;;;;;;;16.14;67.80;101831.84;5089361;28;20026;-45
2023/04/22 04:14:23;;;;;;;15.65;4.30;;;;;;;16.09;68.27;101838.72;5103386;28;20114;-45
2023/04/22 04:16:50;;;;;;;17.95;4.90;;;;;;;16.12;67.88;101844.75;5112417;28;20024;-46
2023/04/22 04:19:16;;;;;;;15.00;4.43;;;;;;;15.94;67.74;101840.94;5090297;28;20032;-49
2023/04/22 04:21:42;;;;;;;16.50;4.57;;;;;;;15.73;68.73;101839.38;5084945;28;20495;-45
2023/04/22 04:24:09;;;;;;;18.50;4.78;;;;;;;15.80;68.57;101845.56;5089284;28;20034;-44
2023/04/22 04:26:35;;;;;;;18.98;4.65;;;;;;;15.92;68.08;101856.50;5091451;28;20065;-48
2023/04/22 04:29:01;;;;;;;17.42;4.32;;;;;;;15.82;68.47;101850.75;5090965;28;20032;-49
2023/04/22 04:31:28;;;;;;;15.02;4.78;;;;;;;15.86;68.66;101849.28;5091951;28;20046;-48
2023/04/22 04:33:56;;;;;;;16.40;4.35;;;;;;;15.71;69.33;101859.53;5103701;28;20031;-45
2023/04/22 04:36:28;;;;;;;9.93;3.95;;;;;;;15.81;69.03;101851.78;5091903;28;20055;-48
2023/04/22 04:38:55;;;;;;;17.45;4.40;;;;;;;15.76;69.29;101860.53;5103941;28;20039;-47
2023/04/22 04:41:22;;;;;;;16.25;4.32;;;;;;;15.49;70.34;101865.22;5082271;28;20113;-48
2023/04/22 04:43:49;;;;;;;20.25;4.18;;;;;;;15.61;69.43;101856.44;5098215;28;20050;-46
2023/04/22 04:46:15;;;;;;;18.50;4.40;;;;;;;15.27;71.84;101853.88;5091982;28;20024;-47
2023/04/22 04:48:42;;;;;;;19.65;4.82;;;;;;;15.39;71.65;101853.22;5091775;28;20060;-45
2023/04/22 04:51:09;;;;;;;14.73;4.57;;;;;;;15.42;71.57;101856.28;5083436;28;20020;-48
2023/04/22 04:53:35;;;;;;;13.02;4.85;;;;;;;15.39;71.82;101854.03;5098515;28;20032;-48
2023/04/22 04:56:01;;;;;;;13.02;4.40;;;;;;;15.41;71.74;101854.63;5106103;28;20120;-48
2023/04/22 04:58:27;;;;;;;20.17;6.25;;;;;;;15.45;71.96;101855.06;5099186;28;20055;-46
2023/04/22 05:00:54;;;;;;;15.55;5.53;;;;;;;15.39;72.10;101861.31;5091339;28;20042;-45
2023/04/22 05:03:20;;;;;;;23.02;6.00;;;;;;;15.18;72.65;101855.13;5086622;28;20071;-46
2023/04/22 05:05:47;;;;;;;19.42;5.40;;;;;;;15.12;72.44;101849.75;5091540;28;20131;-42
2023/04/22 05:08:14;;;;;;;17.15;4.90;;;;;;;14.92;73.61;101863.28;5091791;28;20095;-44
2023/04/22 05:10:41;;;;;;;19.45;4.95;;;;;;;14.75;74.20;101849.41;5091314;28;20028;-44
2023/04/22 05:13:07;;;;;;;14.00;4.97;;;;;;;14.85;74.01;101847.13;5091662;28;20034;-43
2023/04/22 05:15:34;;;;;;;13.05;4.65;;;;;;;14.94;73.38;101850.44;5091491;28;20116;-44
2023/04/22 05:18:00;;;;;;;17.50;4.82;;;;;;;14.64;74.36;101845.47;5091386;28;20051;-43
2023/04/22 05:20:27;;;;;;;19.05;5.00;;;;;;;14.52;75.14;101842.56;5103757;28;20024;-43
2023/04/22 05:22:53;;;;;;;14.93;4.95;;;;;;;14.65;74.70;101846.28;5111860;28;20096;-43
2023/04/22 05:25:19;;;;;;;20.02;5.15;;;;;;;14.47;75.20;101844.22;5111651;28;20047;-43
2023/04/22 05:27:45;;;;;;;19.88;5.30;;;;;;;14.42;75.38;101842.13;5111721;28;20023;-42
2023/04/22 05:30:12;;;;;;;15.18;4.78;;;;;;;14.18;76.56;101850.81;5111480;28;20027;-45
2023/04/22 05:32:38;;;;;;;25.83;6.07;;;;;;;14.19;76.98;101841.69;5111786;28;20023;-46
2023/04/22 05:35:05;;;;;;;16.52;4.95;;;;;;;14.45;75.50;101838.22;5111720;28;20059;-47
2023/04/22 05:37:31;;;;;;;20.50;5.13;;;;;;;14.31;75.99;101833.84;5100429;28;20081;-48
2023/04/22 05:39:57;;;;;;;18.52;4.68;;;;;;;14.38;75.25;101832.81;5094906;28;20024;-48
2023/04/22 05:42:23;;;;;;;18.10;5.32;;;;;;;14.31;75.02;101834.66;5095162;28;20056;-42
2023/04/22 05:44:50;;;;;;;27.35;5.47;;;;;;;14.38;74.83;101829.28;5095108;28;20070;-46
2023/04/22 05:47:16;;;;;;;15.23;4.63;;;;;;;14.47;73.96;101826.22;5095167;28;20116;-47
2023/04/22 05:49:42;;;;;;;13.10;4.10;;;;;;;14.72;73.08;101828.28;5094597;28;20391;-43
2023/04/22 05:52:08;;;;;;;19.58;4.88;;;;;;;14.67;72.77;101834.28;5095166;28;20103;-45
2023/04/22 05:54:35;;;;;;;14.48;4.57;;;;;;;14.53;73.69;101825.38;5108610;28;20106;-45
2023/04/22 05:57:01;;;;;;;13.85;4.88;;;;;;;14.56;73.92;101826.00;5115374;27;20020;-46
2023/04/22 05:59:27;;;;;;;13.38;4.47;;;;;;;14.66;73.91;101821.03;5109663;28;20477;-43
2023/04/22 06:01:53;;;;;;;23.02;4.82;;;;;;;14.47;74.62;101822.69;5092397;28;20024;-43
2023/04/22 06:04:20;;;;;;;24.02;5.45;;;;;;;14.39;74.79;101820.19;5093029;28;20126;-43
2023/04/22 06:06:46;;;;;;;18.02;4.97;;;;;;;14.53;74.50;101824.53;5106076;28;20028;-43
2023/04/22 06:09:13;;;;;;;22.85;5.57;;;;;;;14.48;74.29;101822.47;5095333;28;20052;-44
2023/04/22 06:11:39;;;;;;;20.10;5.35;;;;;;;14.50;74.07;101816.91;5094912;28;20028;-43
2023/04/22 06:14:06;;;;;;;21.52;5.35;;;;;;;14.31;74.71;101821.19;5094583;28;20119;-43
2023/04/22 06:16:33;;;;;;;17.02;4.75;;;;;;;14.38;74.51;101821.19;5094563;28;20024;-45
2023/04/22 06:18:59;;;;;;;19.38;4.85;;;;;;;14.30;74.66;101821.41;5094505;28;20526;-45
2023/04/22 06:21:26;;;;;;;17.10;5.20;;;;;;;14.32;74.46;101809.38;5094612;28;20116;-47
2023/04/22 06:23:52;;;;;;;21.58;5.10;;;;;;;14.31;74.87;101809.59;5094998;28;20024;-46
2023/04/22 06:26:18;;;;;;;19.27;5.20;;;;;;;14.02;76.19;101808.13;5094390;28;20095;-47
2023/04/22 06:28:44;;;;;;;14.52;4.85;;;;;;;14.14;75.89;101812.69;5094763;28;20108;-43
2023/04/22 06:31:11;;;;;;;23.33;5.43;;;;;;;14.20;75.79;101802.97;5094246;28;20075;-47
2023/04/22 06:33:37;;;;;;;16.70;4.22;;;;;;;14.18;75.58;101802.34;5094045;28;20024;-44
2023/04/22 06:36:04;;;;;;;25.85;6.40;;;;;;;13.93;76.55;101811.00;5094267;28;20024;-45
2023/04/22 06:38:30;;;;;;;21.23;5.35;;;;;;;13.96;76.39;101813.31;5094139;28;20028;-46
2023/04/22 06:40:56;;;;;;;13.25;4.93;;;;;;;14.03;76.12;101801.72;5093990;28;20024;-46
2023/04/22 06:43:22;;;;;;;17.52;5.15;;;;;;;14.14;75.50;101799.25;5094030;28;20040;-47
2023/04/22 06:45:48;;;;;;;26.27;6.32;;;;;;;14.10;75.63;101806.09;5110104;28;20028;-45
2023/04/22 06:48:15;;;;;;;17.67;5.00;;;;;;;14.09;75.54;101804.41;5113448;28;20024;-46
2023/04/22 06:50:41;;;;;;;20.40;4.72;;;;;;;14.05;75.75;101805.03;5113942;28;20468;-46
2023/04/22 06:53:08;;;;;;;17.92;5.65;;;;;;;14.05;75.65;101799.63;5114270;28;20028;-46
2023/04/22 06:55:35;;;;;;;18.70;5.25;;;;;;;14.12;75.21;101792.41;5114195;28;20026;-44
2023/04/22 06:58:01;;;;;;;23.95;5.13;;;;;;;14.07;75.45;101784.13;5114372;28;20034;-45
2023/04/22 07:00:28;;;;;;;21.85;5.80;;;;;;;14.17;75.08;101792.63;5109451;28;20468;-45
2023/04/22 07:02:54;;;;;;;22.20;5.03;;;;;;;14.24;75.02;101794.28;5091227;28;20020;-45
2023/04/22 07:05:20;;;;;;;12.52;4.78;;;;;;;14.10;75.74;101792.63;5093712;28;20023;-44
2023/04/22 07:07:46;;;;;;;12.05;4.85;;;;;;;14.16;75.11;101790.97;5093511;28;20077;-43
2023/04/22 07:10:13;;;;;;;18.10;5.38;;;;;;;14.22;74.99;101787.44;5093388;28;20020;-44
2023/04/22 07:12:40;;;;;;;16.08;5.25;;;;;;;14.23;74.71;101789.09;5091635;28;20028;-45
2023/04/22 07:15:07;;;;;;;20.38;5.07;;;;;;;14.24;75.32;101783.50;5093247;28;20024;-43
2023/04/22 07:17:33;;;;;;;17.15;5.32;;;;;;;14.26;75.21;101784.13;5092894;28;20059;-44
2023/04/22 07:19:59;;;;;;;16.83;4.60;;;;;;;14.32;74.97;101785.16;5100679;28;20105;-46
2023/04/22 07:22:26;;;;;;;18.48;5.45;;;;;;;14.13;75.76;101786.00;5093073;28;20031;-44
2023/04/22 07:24:52;;;;;;;19.75;5.55;;;;;;;14.10;76.20;101770.22;5093329;28;20052;-43
2023/04/22 07:27:18;;;;;;;19.52;6.22;;;;;;;14.15;75.84;101770.44;5105982;28;20020;-44
2023/04/22 07:29:44;;;;;;;19.73;4.95;;;;;;;14.19;75.46;101771.69;5092703;28;20376;-44
2023/04/22 07:32:10;;;;;;;22.23;5.50;;;;;;;14.19;75.60;101769.84;5093239;28;20479;-42
2023/04/22 07:34:37;;;;;;;17.73;5.45;;;;;;;14.27;75.55;101766.94;5093000;28;20035;-45
2023/04/22 07:37:03;;;;;;;14.40;4.80;;;;;;;14.19;75.79;101764.44;5110818;28;20030;-44
2023/04/22 07:39:30;;;;;;;22.75;5.72;;;;;;;14.25;75.18;101765.47;5104022;28;20020;-45
2023/04/22 07:41:56;;;;;;;19.75;5.75;;;;;;;14.24;75.55;101758.44;5092913;28;20031;-43
2023/04/22 07:44:22;;;;;;;15.93;4.90;;;;;;;14.19;75.68;101760.94;5092890;28;20032;-45
2023/04/22 07:46:49;;;;;;;29.02;5.78;;;;;;;14.03;76.46;101751.41;5092777;28;20016;-43
2023/04/22 07:49:16;;;;;;;18.65;5.28;;;;;;;14.33;75.56;101762.59;5092653;28;20032;-44
2023/04/22 07:51:43;;;;;;;21.83;5.80;;;;;;;14.11;76.29;101763.84;5092486;28;20366;-47
2023/04/22 07:54:10;;;;;;;20.50;5.55;;;;;;;14.03;76.45;101751.41;5093174;28;20028;-46
2023/04/22 07:56:36;;;;;;;18.55;4.97;;;;;;;14.00;76.53;101752.66;5092634;28;20110;-42
2023/04/22 07:59:03;;;;;;;21.05;5.10;;;;;;;13.97;76.89;101753.03;5092231;28;20039;-45
2023/04/22 08:01:29;;;;;;;21.38;4.85;;;;;;;13.86;76.85;101758.22;5081485;28;20055;-47
2023/04/22 08:03:55;;;;;;;17.65;5.30;;;;;;;14.05;76.60;101754.72;5073930;28;20039;-43
2023/04/22 08:06:22;;;;;;;18.83;4.82;;;;;;;14.17;75.73;101752.25;5083525;28;20020;-46
2023/04/22 08:08:48;;;;;;;18.35;6.03;;;;;;;14.12;75.92;101752.03;5081951;28;20098;-45
2023/04/22 08:11:14;;;;;;;23.77;5.65;;;;;;;13.91;76.39;101753.88;5079280;28;20043;-45
2023/04/22 08:13:40;;;;;;;17.27;4.97;;;;;;;13.87;76.80;101751.78;5092323;28;20028;-42
2023/04/22 08:16:07;;;;;;;15.43;5.00;;;;;;;13.83;76.85;101756.78;5092576;28;20028;-44
2023/04/22 08:18:33;;;;;;;16.13;5.18;;;;;;;13.85;76.20;101760.09;5091622;28;20047;-43
2023/04/22 08:20:59;;;;;;;28.85;5.55;;;;;;;13.73;76.99;101753.66;5092400;28;20012;-45
2023/04/22 08:23:25;;;;;;;15.98;5.10;;;;;;;13.67;77.01;101747.22;5092186;28;20020;-42
2023/04/22 08:25:52;;;;;;;19.45;4.72;;;;;;;13.78;76.64;101747.66;5092192;28;20424;-43
2023/04/22 08:28:18;;;;;;;18.33;4.82;;;;;;;13.93;76.07;101745.59;5092148;28;20031;-43
2023/04/22 08:30:44;;;;;;;21.42;5.55;;;;;;;14.09;75.08;101753.25;5092008;28;20141;-44
2023/04/22 08:33:10;;;;;;;19.60;4.47;;;;;;;13.88;75.70;101751.63;5091962;28;20131;-46
2023/04/22 08:35:37;;;;;;;18.27;4.93;;;;;;;13.97;74.96;101744.97;5092155;28;20023;-44
2023/04/22 08:38:03;;;;;;;21.58;5.05;;;;;;;13.79;75.86;101744.75;5096832;28;20406;-45
2023/04/22 08:40:30;;;;;;;16.63;4.70;;;;;;;13.70;75.96;101744.09;5094808;28;20373;-44
2023/04/22 08:42:56;;;;;;;15.82;5.28;;;;;;;13.81;76.03;101736.47;5091969;28;20111;-43
2023/04/22 08:45:23;;;;;;;17.52;4.43;;;;;;;13.71;76.09;101734.19;5092218;28;20024;-46
2023/04/22 08:47:49;;;;;;;19.08;4.75;;;;;;;13.73;76.51;101727.56;5091923;28;20480;-44
2023/04/22 08:50:16;;;;;;;19.20;5.38;;;;;;;13.73;75.99;101730.25;5091665;28;20028;-43
2023/04/22 08:52:42;;;;;;;16.75;4.90;;;;;;;13.77;76.30;101728.00;5091731;28;20112;-44
2023/04/22 08:55:09;;;;;;;19.13;4.95;;;;;;;13.69;76.86;101720.09;5097269;28;20480;-46
2023/04/22 08:57:39;;;;;;;16.95;5.65;;;;;;;13.75;76.51;101716.59;5096065;28;20024;-43
2023/04/22 09:00:07;;;;;;;20.08;5.30;;;;;;;13.70;76.77;101722.59;5071728;28;20051;-46
2023/04/22 09:02:36;;;;;;;19.10;6.05;;;;;;;13.48;77.78;101721.94;5071561;28;20028;-43
2023/04/22 09:05:05;;;;;;;13.35;3.97;;;;;;;13.39;78.26;101716.97;5071718;28;20064;-45
2023/04/22 09:07:32;;;;;;;17.05;4.95;;;;;;;13.62;76.88;101708.53;5071654;28;20033;-46
2023/04/22 09:09:58;;;;;;;16.48;4.53;;;;;;;13.65;76.97;101706.22;5071573;28;20051;-44
2023/04/22 09:12:25;;;;;;;20.58;5.25;;;;;;;13.54;77.66;101714.06;5089556;28;20530;-45
2023/04/22 09:14:53;;;;;;;17.00;4.47;;;;;;;13.69;77.12;101698.59;5116192;28;20031;-45
2023/04/22 09:17:31;;;;;;;25.30;5.80;;;;;;;13.80;76.89;101703.34;5116028;28;20050;-43
2023/04/22 09:19:58;;;;;;;17.83;5.82;;;;;;;13.60;77.16;101699.81;5115910;28;20062;-44
2023/04/22 09:22:26;;;;;;;18.95;5.78;;;;;;;13.68;76.99;101694.25;5115958;28;20440;-47
2023/04/22 09:24:52;;;;;;;25.02;5.85;;;;;;;13.46;77.81;101686.34;5116004;28;20038;-46
2023/04/22 09:27:22;;;;;;;16.08;5.18;;;;;;;13.51;77.57;101695.69;5115946;28;20050;-43
2023/04/22 09:29:50;;;;;;;18.92;5.20;;;;;;;13.52;77.60;101690.09;5104189;27;20016;-46
2023/04/22 09:32:17;;;;;;;16.80;5.57;;;;;;;13.40;78.39;101702.47;5095447;28;20020;-43
2023/04/22 09:34:54;;;;;;;21.88;5.63;;;;;;;13.35;78.38;101694.19;5095299;28;20077;-44
2023/04/22 09:37:23;;;;;;;17.90;5.95;;;;;;;13.32;78.22;101700.78;5095457;28;20026;-45
2023/04/22 09:39:51;;;;;;;20.00;5.95;;;;;;;13.47;77.77;101688.00;5094971;28;20028;-44
2023/04/22 09:42:18;;;;;;;22.42;5.18;;;;;;;13.38;77.56;101683.00;5095329;28;20115;-43
2023/04/22 09:44:46;;;;;;;19.38;5.63;;;;;;;13.42;77.57;101682.41;5095280;28;20099;-43
2023/04/22 09:47:12;;;;;;;17.13;5.22;;;;;;;13.33;78.15;101675.59;5109603;28;20097;-43
2023/04/22 09:49:39;;;;;;;14.45;4.25;;;;;;;13.32;78.15;101679.28;5115300;28;20028;-43
2023/04/22 09:52:05;;;;;;;20.63;4.70;;;;;;;13.51;77.48;101674.97;5115538;28;20020;-46
2023/04/22 09:54:32;;;;;;;12.65;4.78;;;;;;;13.47;77.53;101663.78;5115160;27;20031;-44
2023/04/22 09:56:58;;;;;;;15.25;5.03;;;;;;;13.62;77.10;101663.63;5109703;28;20411;-42
2023/04/22 09:59:27;;;;;;;14.30;4.30;;;;;;;13.50;77.54;101659.06;5074359;28;20437;-44
2023/04/22 10:01:59;;;;;;;20.70;4.72;;;;;;;13.41;77.60;101650.34;5074646;28;20031;-43
2023/04/22 10:04:26;;;;;;;12.82;4.65;;;;;;;13.36;77.64;101652.81;5107353;28;20019;-45
2023/04/22 10:06:53;;;;;;;14.55;4.72;;;;;;;13.07;79.07;101644.03;5115302;28;20059;-43
2023/04/22 10:09:21;;;;;;;21.63;5.32;;;;;;;13.15;78.94;101646.53;5115029;27;20023;-43
2023/04/22 10:11:51;;;;;;;19.40;5.10;;;;;;;13.05;79.27;101642.59;5115141;28;20027;-47
2023/04/22 10:14:17;;;;;;;15.52;4.82;;;;;;;13.15;78.80;101635.78;5114972;27;20377;-44
2023/04/22 10:16:46;;;;;;;17.40;4.72;;;;;;;13.00;79.18;101634.31;5114864;28;20052;-44
2023/04/22 10:19:21;;;;;;;15.65;4.78;;;;;;;13.02;79.33;101635.75;5114681;28;20031;-46
2023/04/22 10:21:55;;;;;;;17.13;5.38;;;;;;;13.31;78.13;101634.59;5095407;27;20027;-43
2023/04/22 10:24:21;;;;;;;15.32;4.22;;;;;;;13.07;78.74;101640.53;5094256;28;20051;-44
2023/04/22 10:26:50;;;;;;;18.55;5.65;;;;;;;13.10;78.05;101629.34;5094350;28;20540;-43
2023/04/22 10:29:19;;;;;;;22.65;5.78;;;;;;;13.03;78.56;101633.91;5093895;28;20043;-43
2023/04/22 10:32:04;;;;;;;21.45;5.65;;;;;;;13.01;78.87;101633.28;5094426;28;20032;-46
2023/04/22 10:34:31;;;;;;;16.83;4.97;;;;;;;12.93;79.11;101632.41;5094075;28;20032;-44
2023/04/22 10:37:10;;;;;;;14.18;4.85;;;;;;;12.83;79.41;101632.00;5097873;28;20026;-46
2023/04/22 10:39:38;;;;;;;18.38;5.35;;;;;;;12.99;78.72;101627.25;5104236;28;20020;-45
2023/04/22 10:42:08;;;;;;;17.42;5.10;;;;;;;13.00;78.92;101634.31;5094129;28;20032;-43
2023/04/22 10:45:00;;;;;;;17.20;4.72;;;;;;;12.99;79.14;101632.63;5094311;28;20123;-43
2023/04/22 10:47:27;;;;;;;17.65;4.50;;;;;;;12.84;79.50;101622.06;5094360;28;20028;-46
2023/04/22 10:50:26;;;;;;;20.27;5.63;;;;;;;12.86;80.46;101630.75;5093679;28;20024;-44
2023/04/22 10:52:58;;;;;;;18.55;5.60;;;;;;;12.79;80.28;101628.03;5060180;28;20044;-42
2023/04/22 10:55:25;;;;;;;17.77;5.30;;;;;;;12.56;81.19;101628.38;5109534;28;20605;-44
2023/04/22 10:57:52;;;;;;;22.65;5.38;;;;;;;12.49;81.36;101624.81;5093433;28;20024;-44
2023/04/22 11:00:29;;;;;;;16.38;5.18;;;;;;;12.50;82.52;101620.28;5073064;28;20591;-44
2023/04/22 11:03:04;;;;;;;22.63;5.53;;;;;;;12.65;81.73;101620.94;5073466;28;20032;-44
2023/04/22 11:05:31;;;;;;;;;;;;;;;12.69;81.55;101614.97;5073993;28;20044;-46
2023/04/22 11:08:19;;;;;;;17.38;5.53;;;;;;;12.58;81.52;101618.25;5073560;28;19912;-44
2023/04/22 11:10:48;;;;;;;20.65;5.30;;;;;;;12.39;82.32;101624.38;5078171;28;20047;-44
2023/04/22 11:13:22;;;;;;;12.77;4.60;;;;;;;12.47;82.13;101618.81;5113918;28;20052;-44
2023/04/22 11:15:55;;;;;;;22.40;5.10;;;;;;;12.28;83.43;101619.56;5113985;28;20032;-42
2023/04/22 11:18:26;;;;;;;12.70;4.53;;;;;;;12.32;83.09;101616.25;5113432;28;20078;-44